Time;durP1;ratioP1;P1;durP2;ratioP2;P2;SDS_P1;SDS_P2;PMS_P1;PMS_P2;Temp;Humidity;BMP_temperature;BMP_pressure;BME280_temperature;BME280_humidity;BME280_pressure;Samples;Min_cycle;Max_cycle;Signal;HPM_P1;HPM_P2
2022/05/24 00:01:09;;;;;;;2.40;1.23;;;16.30;99.90;;;;;;5072567;28;20260;-70
2022/05/24 00:03:36;;;;;;;8.02;2.60;;;16.40;99.90;;;;;;5072077;28;20251;-71
2022/05/24 00:06:03;;;;;;;3.70;1.40;;;16.30;99.90;;;;;;5072359;28;20202;-74
2022/05/24 00:08:30;;;;;;;7.85;1.70;;;16.40;99.90;;;;;;5071700;28;20234;-71
2022/05/24 00:10:57;;;;;;;5.03;1.90;;;16.40;99.90;;;;;;5072463;28;20247;-71
2022/05/24 00:13:26;;;;;;;4.47;1.27;;;16.40;99.90;;;;;;5071984;28;20202;-71
2022/05/24 00:15:53;;;;;;;3.42;1.52;;;16.30;99.90;;;;;;5072326;28;20198;-71
2022/05/24 00:18:23;;;;;;;3.15;1.60;;;16.40;99.90;;;;;;5072401;28;20202;-70
2022/05/24 00:20:52;;;;;;;3.17;1.50;;;16.50;99.90;;;;;;5072558;28;20207;-69
2022/05/24 00:23:22;;;;;;;4.80;1.25;;;16.40;99.90;;;;;;5072464;28;20279;-71
2022/05/24 00:25:53;;;;;;;4.93;2.22;;;16.30;99.90;;;;;;5071973;28;20205;-70
2022/05/24 00:28:21;;;;;;;3.85;1.58;;;16.30;99.90;;;;;;5071135;28;20325;-70
2022/05/24 00:30:50;;;;;;;1.58;1.30;;;16.40;99.90;;;;;;5071834;28;20198;-69
2022/05/24 00:36:39;;;;;;;4.63;1.48;;;16.30;99.90;;;;;;5071234;28;20217;-70
2022/05/24 00:39:06;;;;;;;12.40;3.90;;;16.40;99.90;;;;;;5071618;28;20233;-71
2022/05/24 00:41:39;;;;;;;3.30;1.35;;;16.30;99.90;;;;;;5071262;28;20210;-71
2022/05/24 00:44:13;;;;;;;4.80;2.08;;;16.40;99.90;;;;;;5071297;28;20214;-70
2022/05/24 00:46:47;;;;;;;2.22;1.52;;;16.40;99.90;;;;;;5071204;28;20202;-71
2022/05/24 00:49:17;;;;;;;2.80;1.40;;;16.40;99.90;;;;;;5071322;28;20669;-70
2022/05/24 00:51:49;;;;;;;3.38;1.02;;;16.30;99.90;;;;;;5071089;28;20214;-72
2022/05/24 00:54:17;;;;;;;6.20;1.15;;;16.30;99.90;;;;;;5071335;28;20206;-73
2022/05/24 00:56:56;;;;;;;5.57;2.15;;;16.20;99.90;;;;;;5070970;28;20275;-70
2022/05/24 00:59:31;;;;;;;3.53;1.60;;;16.30;99.90;;;;;;5071146;28;20202;-70
2022/05/24 01:02:00;;;;;;;3.75;1.40;;;16.20;99.90;;;;;;5071094;28;20259;-69
2022/05/24 01:04:28;;;;;;;3.75;1.15;;;16.20;99.90;;;;;;5070805;28;20726;-72
2022/05/24 01:06:55;;;;;;;2.28;1.10;;;16.10;99.90;;;;;;5071124;28;20259;-71
2022/05/24 01:09:26;;;;;;;2.75;1.00;;;16.00;99.90;;;;;;5057705;28;20211;-70
2022/05/24 01:11:58;;;;;;;2.70;1.42;;;16.10;99.90;;;;;;5051170;28;20207;-70
2022/05/24 01:14:26;;;;;;;6.45;1.38;;;16.10;99.90;;;;;;5050745;28;20257;-69
2022/05/24 01:16:54;;;;;;;2.05;0.90;;;16.00;99.90;;;;;;5051095;28;20202;-71
2022/05/24 01:19:33;;;;;;;3.10;0.98;;;16.00;99.90;;;;;;5051302;28;20199;-71
2022/05/24 01:22:13;;;;;;;2.88;1.23;;;16.10;99.90;;;;;;5050729;28;20198;-72
2022/05/24 01:24:47;;;;;;;5.35;1.27;;;16.20;99.90;;;;;;5050523;28;20202;-71
2022/05/24 01:27:15;;;;;;;2.90;1.33;;;16.00;99.90;;;;;;5050753;28;20288;-72
2022/05/24 01:29:42;;;;;;;5.32;1.48;;;16.00;99.90;;;;;;5050474;28;20790;-71
2022/05/24 01:37:43;;;;;;;3.25;1.20;;;16.10;99.90;;;;;;5050356;28;20210;-71
2022/05/24 01:40:10;;;;;;;4.95;1.88;;;16.10;99.90;;;;;;5050396;28;20233;-71
2022/05/24 01:42:39;;;;;;;2.58;1.88;;;16.00;99.90;;;;;;5050366;28;20202;-71
2022/05/24 01:45:11;;;;;;;3.38;1.05;;;16.10;99.90;;;;;;5050409;28;20639;-71
2022/05/24 01:47:42;;;;;;;3.00;1.10;;;16.10;99.90;;;;;;5050290;28;20238;-71
2022/05/24 01:50:18;;;;;;;2.72;1.33;;;16.10;99.90;;;;;;5050398;28;20298;-70
2022/05/24 01:52:49;;;;;;;5.22;2.45;;;16.00;99.90;;;;;;5050372;28;20268;-70
2022/05/24 01:55:20;;;;;;;7.40;1.63;;;16.00;99.90;;;;;;5050320;28;20329;-70
2022/05/24 01:57:52;;;;;;;3.15;1.17;;;16.00;99.90;;;;;;5050238;28;20238;-72
2022/05/24 02:00:19;;;;;;;2.42;1.30;;;16.00;99.90;;;;;;5050914;28;20206;-71
2022/05/24 02:02:47;;;;;;;1.67;1.27;;;15.90;99.90;;;;;;5050205;28;20203;-71
2022/05/24 02:05:28;;;;;;;5.82;1.45;;;15.80;99.90;;;;;;5050469;28;20264;-71
2022/05/24 02:07:55;;;;;;;4.75;1.10;;;15.90;99.90;;;;;;5050485;28;20653;-70
2022/05/24 02:10:22;;;;;;;2.78;1.35;;;15.90;99.90;;;;;;5050741;28;20207;-70
2022/05/24 02:12:53;;;;;;;3.22;1.42;;;16.00;99.90;;;;;;5050417;28;20207;-70
2022/05/24 02:15:25;;;;;;;4.28;1.10;;;16.10;99.90;;;;;;5050652;28;20207;-70
2022/05/24 02:18:00;;;;;;;2.17;1.52;;;16.00;99.90;;;;;;5050735;28;20207;-71
2022/05/24 02:20:30;;;;;;;1.95;1.45;;;16.00;99.90;;;;;;5049867;28;20202;-70
2022/05/24 02:22:58;;;;;;;5.13;1.30;;;16.10;99.90;;;;;;5050371;28;20205;-71
2022/05/24 02:25:31;;;;;;;1.88;1.20;;;16.10;99.90;;;;;;5049883;28;20737;-71
2022/05/24 02:27:59;;;;;;;2.55;1.33;;;16.10;99.90;;;;;;5050141;28;20292;-71
2022/05/24 02:30:29;;;;;;;8.07;1.42;;;15.90;99.90;;;;;;5050156;28;20207;-71
2022/05/24 02:32:56;;;;;;;3.55;1.90;;;15.80;99.90;;;;;;5050521;28;20273;-71
2022/05/24 02:35:23;;;;;;;4.68;1.65;;;15.80;99.90;;;;;;5050379;28;20293;-71
2022/05/24 02:37:50;;;;;;;3.72;1.10;;;15.90;99.90;;;;;;5050420;28;20211;-71
2022/05/24 02:43:03;;;;;;;4.40;1.80;;;15.80;99.90;;;;;;5050084;28;20198;-71
2022/05/24 02:45:30;;;;;;;2.88;1.02;;;15.90;99.90;;;;;;5049562;28;20207;-71
2022/05/24 02:47:57;;;;;;;2.13;1.52;;;15.90;99.90;;;;;;5050183;28;20227;-71
2022/05/24 02:50:26;;;;;;;2.65;1.55;;;16.00;99.90;;;;;;5050112;28;20729;-71
2022/05/24 02:52:54;;;;;;;2.67;1.27;;;15.80;99.90;;;;;;5052290;28;20203;-71
2022/05/24 02:55:21;;;;;;;1.50;1.08;;;15.80;99.90;;;;;;5053935;28;20556;-70
2022/05/24 02:57:48;;;;;;;3.50;1.20;;;15.80;99.90;;;;;;5053789;28;20207;-71
2022/05/24 03:00:19;;;;;;;4.88;1.67;;;15.90;99.90;;;;;;5053617;28;20207;-71
2022/05/24 03:02:46;;;;;;;1.85;1.20;;;15.80;99.90;;;;;;5053174;28;20256;-70
2022/05/24 03:05:14;;;;;;;3.00;1.20;;;15.70;99.90;;;;;;5053611;28;20203;-71
2022/05/24 03:10:27;;;;;;;5.40;1.10;;;15.80;99.90;;;;;;5052923;28;20210;-71
2022/05/24 03:15:41;;;;;;;3.80;1.38;;;15.60;99.90;;;;;;5053103;28;20288;-71
2022/05/24 03:18:09;;;;;;;2.72;1.10;;;15.70;99.90;;;;;;5053207;28;20203;-70
2022/05/24 03:20:36;;;;;;;2.63;1.08;;;15.70;99.90;;;;;;5053118;28;20253;-70
2022/05/24 03:23:03;;;;;;;3.15;1.52;;;15.70;99.90;;;;;;5053139;28;20613;-70
2022/05/24 03:25:31;;;;;;;1.50;1.00;;;15.60;99.90;;;;;;5052570;28;20675;-70
2022/05/24 03:27:58;;;;;;;3.65;1.20;;;15.60;99.90;;;;;;5052964;28;20597;-70
2022/05/24 03:30:25;;;;;;;1.48;0.98;;;15.60;99.90;;;;;;5052708;28;20203;-70
2022/05/24 03:32:54;;;;;;;2.22;0.80;;;15.60;99.90;;;;;;5053650;28;20203;-71
2022/05/24 03:35:21;;;;;;;1.27;0.80;;;15.50;99.90;;;;;;5053452;28;20249;-70
2022/05/24 03:37:48;;;;;;;6.60;1.25;;;15.50;99.90;;;;;;5052435;28;20210;-70
2022/05/24 03:40:16;;;;;;;2.88;1.35;;;15.50;99.90;;;;;;5052954;28;20207;-70
2022/05/24 03:42:43;;;;;;;4.45;1.38;;;15.50;99.90;;;;;;5052455;28;20265;-70
2022/05/24 03:45:11;;;;;;;2.72;1.00;;;15.60;99.90;;;;;;5052623;28;20215;-70
2022/05/24 03:47:39;;;;;;;3.40;1.10;;;15.70;99.90;;;;;;5052236;28;20210;-70
2022/05/24 03:50:09;;;;;;;1.55;1.00;;;15.60;99.90;;;;;;5052574;28;20594;-71
2022/05/24 03:52:36;;;;;;;2.78;0.95;;;15.60;99.90;;;;;;5052118;28;20211;-72
2022/05/24 03:55:04;;;;;;;3.17;1.08;;;15.60;99.90;;;;;;5052660;28;20203;-70
2022/05/24 04:00:18;;;;;;;4.50;2.65;;;15.50;99.90;;;;;;5052392;28;20222;-72
2022/05/24 04:02:45;;;;;;;1.30;1.17;;;15.50;99.90;;;;;;5051873;28;20582;-72
2022/05/24 04:05:13;;;;;;;1.98;0.88;;;15.50;99.90;;;;;;5052161;28;20740;-71
2022/05/24 04:07:42;;;;;;;3.08;1.13;;;15.60;99.90;;;;;;5051812;28;20209;-71
2022/05/24 04:10:12;;;;;;;3.28;1.35;;;15.60;99.90;;;;;;5052202;28;20210;-71
2022/05/24 04:12:39;;;;;;;4.53;2.15;;;15.60;99.90;;;;;;5052025;28;20202;-72
2022/05/24 04:15:07;;;;;;;2.88;1.23;;;15.60;99.90;;;;;;5052099;28;20209;-71
2022/05/24 04:17:34;;;;;;;2.30;0.93;;;15.50;99.90;;;;;;5051675;28;20248;-70
2022/05/24 04:20:01;;;;;;;2.78;1.00;;;15.50;99.90;;;;;;5051992;28;20280;-71
2022/05/24 04:22:29;;;;;;;2.88;1.30;;;15.50;99.90;;;;;;5051504;28;20261;-71
2022/05/24 04:24:56;;;;;;;1.85;0.85;;;15.50;99.90;;;;;;5051926;28;20604;-71
2022/05/24 04:27:24;;;;;;;2.35;1.00;;;15.30;99.90;;;;;;5052061;28;20670;-71
2022/05/24 04:29:53;;;;;;;2.90;0.93;;;15.40;99.90;;;;;;5052126;28;20324;-71
2022/05/24 04:32:21;;;;;;;2.00;1.13;;;15.30;99.90;;;;;;5052108;28;20211;-71
2022/05/24 04:34:48;;;;;;;1.67;1.08;;;15.40;99.90;;;;;;5050989;28;20203;-71
2022/05/24 04:37:15;;;;;;;0.93;0.85;;;15.40;99.90;;;;;;5051383;28;20203;-71
2022/05/24 04:39:43;;;;;;;3.90;1.20;;;15.50;99.90;;;;;;5051231;28;20199;-71
2022/05/24 04:42:19;;;;;;;2.72;1.25;;;15.50;99.90;;;;;;5051263;28;20199;-70
2022/05/24 04:44:47;;;;;;;2.28;0.90;;;15.50;99.90;;;;;;5050708;28;20224;-71
2022/05/24 04:47:14;;;;;;;1.73;0.60;;;15.50;99.90;;;;;;5051195;28;20744;-71
2022/05/24 04:49:44;;;;;;;4.05;1.27;;;15.60;99.90;;;;;;5050049;28;20575;-71
2022/05/24 04:52:12;;;;;;;1.67;1.23;;;15.60;99.90;;;;;;5051107;28;20264;-71
2022/05/24 04:54:39;;;;;;;3.83;1.10;;;15.60;99.90;;;;;;5050083;28;20271;-71
2022/05/24 04:57:09;;;;;;;1.42;0.70;;;15.60;99.90;;;;;;5050728;28;20260;-71
2022/05/24 04:59:36;;;;;;;0.77;0.60;;;15.60;99.90;;;;;;5050519;28;20252;-71
2022/05/24 05:02:04;;;;;;;6.05;1.10;;;15.50;99.90;;;;;;5051230;28;20203;-71
2022/05/24 05:04:31;;;;;;;5.85;1.10;;;15.50;99.90;;;;;;5050690;28;20207;-71
2022/05/24 05:06:58;;;;;;;3.40;0.93;;;15.60;99.90;;;;;;5051426;28;20211;-71
2022/05/24 05:09:25;;;;;;;3.83;1.15;;;15.50;99.90;;;;;;5050826;28;20268;-71
2022/05/24 05:11:52;;;;;;;4.85;1.20;;;15.50;99.90;;;;;;5051640;28;20198;-71
2022/05/24 05:14:21;;;;;;;2.53;0.88;;;15.50;99.90;;;;;;5050956;28;20636;-71
2022/05/24 05:16:48;;;;;;;3.72;2.83;;;15.60;99.90;;;;;;5050590;28;20260;-71
2022/05/24 05:19:14;;;;;;;1.85;0.70;;;15.70;99.90;;;;;;5051026;28;20199;-70
2022/05/24 05:21:43;;;;;;;1.73;1.60;;;15.70;99.90;;;;;;5053628;28;20755;-71
2022/05/24 05:24:10;;;;;;;2.78;1.00;;;15.90;99.90;;;;;;5071122;28;20209;-71
2022/05/24 05:26:37;;;;;;;1.70;1.20;;;16.00;99.90;;;;;;5061256;28;20211;-71
2022/05/24 05:29:09;;;;;;;5.32;2.67;;;16.20;99.90;;;;;;5053369;28;20229;-71
2022/05/24 05:31:36;;;;;;;3.60;1.30;;;16.30;99.90;;;;;;5070014;28;20208;-70
2022/05/24 05:34:04;;;;;;;1.45;1.15;;;16.10;99.90;;;;;;5070249;28;20289;-71
2022/05/24 05:36:32;;;;;;;2.80;1.40;;;15.90;99.90;;;;;;5070363;28;20198;-71
2022/05/24 05:39:00;;;;;;;2.72;1.00;;;15.70;99.90;;;;;;5062101;28;20328;-70
2022/05/24 05:41:29;;;;;;;5.13;1.33;;;15.60;99.90;;;;;;5070200;28;20202;-71
2022/05/24 05:43:58;;;;;;;4.63;1.38;;;15.70;99.90;;;;;;5070330;28;20216;-71
2022/05/24 05:46:25;;;;;;;5.40;1.52;;;15.80;99.90;;;;;;5069962;28;20244;-70
2022/05/24 05:48:53;;;;;;;2.78;1.05;;;15.80;99.90;;;;;;5070352;28;20230;-71
2022/05/24 05:51:21;;;;;;;4.05;1.02;;;15.80;99.90;;;;;;5070945;28;20206;-71
2022/05/24 05:53:48;;;;;;;3.03;1.33;;;15.70;99.90;;;;;;5069959;28;20210;-72
2022/05/24 05:56:17;;;;;;;2.75;1.58;;;15.70;99.90;;;;;;5070463;28;20203;-71
2022/05/24 05:58:44;;;;;;;1.90;1.17;;;15.90;99.90;;;;;;5069762;28;20622;-71
2022/05/24 06:01:19;;;;;;;4.15;0.95;;;16.00;99.90;;;;;;5070114;28;20198;-71
2022/05/24 06:03:46;;;;;;;1.65;0.90;;;16.10;99.90;;;;;;5069762;28;20210;-70
2022/05/24 06:06:18;;;;;;;2.90;1.65;;;15.90;99.90;;;;;;5070322;28;20540;-71
2022/05/24 06:08:45;;;;;;;2.42;1.67;;;16.00;99.90;;;;;;5069500;28;20697;-70
2022/05/24 06:11:11;;;;;;;4.72;2.03;;;15.90;99.90;;;;;;5070064;28;20255;-71
2022/05/24 06:13:38;;;;;;;2.95;1.05;;;15.80;99.90;;;;;;5069918;28;20259;-70
2022/05/24 06:16:05;;;;;;;2.47;1.58;;;15.70;99.90;;;;;;5061852;28;20202;-72
2022/05/24 06:18:32;;;;;;;2.78;1.08;;;15.70;99.90;;;;;;5069813;28;20207;-72
2022/05/24 06:21:00;;;;;;;4.47;1.48;;;15.80;99.90;;;;;;5070280;28;20260;-71
2022/05/24 06:23:28;;;;;;;3.10;1.58;;;16.20;99.90;;;;;;5069544;28;20214;-71
2022/05/24 06:25:55;;;;;;;7.32;1.60;;;16.00;99.90;;;;;;5069387;28;20271;-71
2022/05/24 06:28:22;;;;;;;2.13;1.42;;;15.80;99.90;;;;;;5073331;28;20244;-71
2022/05/24 06:30:49;;;;;;;4.68;1.20;;;15.90;99.90;;;;;;5072603;28;20705;-72
2022/05/24 06:33:16;;;;;;;3.47;1.52;;;16.00;99.90;;;;;;5074191;28;20260;-71
2022/05/24 06:35:43;;;;;;;3.17;1.17;;;15.80;99.90;;;;;;5073638;28;20267;-71
2022/05/24 06:38:10;;;;;;;9.40;1.88;;;15.90;99.90;;;;;;5073954;28;20264;-71
2022/05/24 06:40:38;;;;;;;2.42;1.20;;;16.20;99.90;;;;;;5073807;28;20283;-71
2022/05/24 06:43:06;;;;;;;9.23;2.58;;;16.20;99.90;;;;;;5073902;28;20202;-71
2022/05/24 06:45:33;;;;;;;2.53;1.48;;;16.60;99.90;;;;;;5067770;28;20299;-73
2022/05/24 06:48:01;;;;;;;4.85;1.20;;;17.00;99.90;;;;;;5059429;28;20207;-72
2022/05/24 06:50:28;;;;;;;6.38;1.50;;;17.00;99.90;;;;;;5053785;28;20682;-72
2022/05/24 06:52:56;;;;;;;3.30;1.40;;;16.80;99.90;;;;;;5053771;28;20199;-71
2022/05/24 06:55:23;;;;;;;5.38;1.30;;;16.60;99.90;;;;;;5054016;28;20253;-72
2022/05/24 06:57:52;;;;;;;7.47;1.58;;;16.70;99.90;;;;;;5065905;28;20275;-72
2022/05/24 07:03:07;;;;;;;8.18;2.08;;;16.60;99.90;;;;;;5073659;28;20703;-72
2022/05/24 07:05:34;;;;;;;5.10;1.50;;;16.70;99.90;;;;;;5073364;28;20206;-73
2022/05/24 07:08:02;;;;;;;2.83;1.30;;;16.60;99.90;;;;;;5073646;28;20206;-72
2022/05/24 07:10:30;;;;;;;4.53;1.23;;;16.40;99.90;;;;;;5072937;28;20298;-71
2022/05/24 07:13:03;;;;;;;2.90;0.90;;;16.50;99.90;;;;;;5073189;28;20202;-72
2022/05/24 07:15:30;;;;;;;3.80;1.05;;;16.80;99.90;;;;;;5072739;28;20206;-71
2022/05/24 07:17:58;;;;;;;2.83;1.38;;;17.10;99.90;;;;;;5073474;28;20261;-72
2022/05/24 07:20:26;;;;;;;4.88;1.92;;;17.50;99.90;;;;;;5062341;28;20210;-70
2022/05/24 07:22:54;;;;;;;7.75;2.00;;;17.80;99.90;;;;;;5066679;28;20213;-73
2022/05/24 07:25:21;;;;;;;5.93;0.98;;;18.00;99.90;;;;;;5069477;28;20305;-73
2022/05/24 07:27:49;;;;;;;3.35;1.23;;;17.70;99.90;;;;;;5072503;28;20209;-73
2022/05/24 07:30:17;;;;;;;4.07;1.42;;;17.60;99.90;;;;;;5071708;28;20650;-74
2022/05/24 07:32:45;;;;;;;4.47;1.10;;;17.60;99.90;;;;;;5071906;28;20210;-73
2022/05/24 07:35:13;;;;;;;7.40;1.60;;;17.50;99.90;;;;;;5064661;28;20661;-72
2022/05/24 07:37:40;;;;;;;6.20;1.38;;;17.60;99.90;;;;;;5071940;28;20232;-72
2022/05/24 07:45:52;;;;;;;3.33;1.17;;;17.10;99.90;;;;;;5068002;28;20225;-71
2022/05/24 07:48:19;;;;;;;4.88;1.20;;;16.80;99.90;;;;;;5064583;28;20217;-72
2022/05/24 07:50:47;;;;;;;4.32;1.45;;;16.90;99.90;;;;;;5071565;28;20324;-72
2022/05/24 07:53:15;;;;;;;3.67;0.95;;;17.20;99.90;;;;;;5060445;28;20201;-72
2022/05/24 07:55:42;;;;;;;3.10;0.77;;;17.70;99.90;;;;;;5069173;28;20207;-71
2022/05/24 07:58:09;;;;;;;4.38;0.95;;;17.80;99.90;;;;;;5072202;28;20251;-72
2022/05/24 08:00:38;;;;;;;2.38;1.33;;;18.00;99.90;;;;;;5072003;28;20563;-72
2022/05/24 08:03:06;;;;;;;3.95;0.90;;;17.70;99.90;;;;;;5072041;28;20201;-72
2022/05/24 08:05:34;;;;;;;5.20;0.90;;;17.60;99.90;;;;;;5070901;28;20293;-72
2022/05/24 08:08:01;;;;;;;5.78;1.10;;;17.80;99.90;;;;;;5072215;28;20670;-72
2022/05/24 08:10:29;;;;;;;4.22;1.13;;;17.90;99.90;;;;;;5071704;28;20234;-72
2022/05/24 08:12:56;;;;;;;5.38;1.77;;;17.80;99.90;;;;;;5071842;28;20202;-72
2022/05/24 08:15:25;;;;;;;5.45;1.50;;;17.80;99.90;;;;;;5072065;28;20198;-72
2022/05/24 08:17:54;;;;;;;4.53;1.92;;;17.60;99.90;;;;;;5072318;28;20268;-73
2022/05/24 08:20:21;;;;;;;4.53;1.00;;;17.60;99.90;;;;;;5072450;28;20615;-71
2022/05/24 08:22:48;;;;;;;2.08;1.50;;;17.50;99.90;;;;;;5071728;28;20202;-72
2022/05/24 08:25:16;;;;;;;3.75;1.48;;;17.50;99.90;;;;;;5072116;28;20198;-73
2022/05/24 08:27:43;;;;;;;2.88;1.15;;;17.50;99.90;;;;;;5071474;28;20206;-72
2022/05/24 08:30:13;;;;;;;4.18;1.50;;;17.50;99.90;;;;;;5071819;28;20226;-72
2022/05/24 08:32:41;;;;;;;2.88;1.20;;;18.10;99.90;;;;;;5071425;28;20255;-71
2022/05/24 08:35:11;;;;;;;4.03;1.13;;;18.50;99.90;;;;;;5071845;28;20198;-72
2022/05/24 08:37:39;;;;;;;4.03;1.27;;;19.00;99.90;;;;;;5071386;28;20202;-72
2022/05/24 08:40:07;;;;;;;1.90;0.73;;;19.10;99.90;;;;;;5071517;28;20210;-73
2022/05/24 08:42:43;;;;;;;7.63;1.50;;;19.20;99.90;;;;;;5070940;28;20573;-73
2022/05/24 08:50:51;;;;;;;2.30;0.95;;;18.60;99.90;;;;;;5070555;28;20233;-72
2022/05/24 08:53:26;;;;;;;4.72;1.92;;;18.10;99.90;;;;;;5071520;28;20202;-72
2022/05/24 08:55:53;;;;;;;1.80;0.80;;;17.90;99.90;;;;;;5071039;28;20743;-72
2022/05/24 08:58:30;;;;;;;3.22;0.80;;;17.90;99.90;;;;;;5071759;28;20575;-73
2022/05/24 09:00:57;;;;;;;3.65;1.15;;;17.90;99.90;;;;;;5071238;28;20206;-72
2022/05/24 09:03:26;;;;;;;4.95;2.55;;;17.80;99.90;;;;;;5071418;28;20198;-73
2022/05/24 09:06:00;;;;;;;5.28;1.42;;;17.70;99.90;;;;;;5071507;28;20213;-72
2022/05/24 09:08:30;;;;;;;4.35;1.23;;;17.60;99.90;;;;;;5070959;28;20206;-72
2022/05/24 09:11:07;;;;;;;3.80;1.70;;;17.60;99.90;;;;;;5071268;28;20287;-72
2022/05/24 09:13:59;;;;;;;4.43;1.35;;;17.50;99.90;;;;;;5070629;28;20198;-72
2022/05/24 09:16:36;;;;;;;7.75;2.47;;;17.40;99.90;;;;;;5070706;28;20610;-73
2022/05/24 09:19:17;;;;;;;3.55;0.88;;;17.60;99.90;;;;;;5064352;28;20213;-73
2022/05/24 09:21:47;;;;;;;3.20;1.42;;;17.70;99.90;;;;;;5070582;28;20228;-73
2022/05/24 09:24:22;;;;;;;4.45;1.17;;;17.80;99.90;;;;;;5070837;28;20202;-73
2022/05/24 09:27:11;;;;;;;2.63;1.63;;;17.60;99.90;;;;;;5070947;28;20205;-75
2022/05/24 09:29:53;;;;;;;3.60;1.13;;;17.50;99.90;;;;;;5070535;28;20303;-73
2022/05/24 09:32:22;;;;;;;3.05;1.13;;;17.60;99.90;;;;;;5071272;28;20202;-72
2022/05/24 09:35:02;;;;;;;6.78;2.38;;;18.00;99.90;;;;;;5070918;28;20236;-72
2022/05/24 09:37:31;;;;;;;2.55;1.70;;;18.80;99.90;;;;;;5070603;28;20210;-73
2022/05/24 09:40:01;;;;;;;2.83;1.42;;;19.20;99.90;;;;;;5070656;28;20669;-73
2022/05/24 09:42:31;;;;;;;2.03;1.40;;;18.90;99.90;;;;;;5070501;28;20297;-72
2022/05/24 09:45:01;;;;;;;6.63;1.75;;;18.90;99.90;;;;;;5070560;28;20743;-72
2022/05/24 09:47:35;;;;;;;2.75;1.23;;;18.90;99.90;;;;;;5070441;28;20243;-72
2022/05/24 09:50:25;;;;;;;2.92;0.98;;;18.60;99.90;;;;;;5070616;28;20237;-73
2022/05/24 09:53:16;;;;;;;5.18;1.40;;;18.70;99.90;;;;;;5071067;28;20202;-72
2022/05/24 09:55:46;;;;;;;5.53;2.08;;;18.60;99.90;;;;;;5067646;28;20272;-72
2022/05/24 09:58:26;;;;;;;3.65;1.63;;;18.60;99.90;;;;;;5070667;28;20284;-72
2022/05/24 10:00:56;;;;;;;4.93;1.40;;;19.10;99.90;;;;;;5071863;28;20214;-73
2022/05/24 10:03:26;;;;;;;4.40;1.75;;;19.30;99.90;;;;;;5075350;28;20574;-73
2022/05/24 10:06:13;;;;;;;1.83;0.80;;;19.60;99.90;;;;;;5075036;28;20212;-72
2022/05/24 10:08:45;;;;;;;3.22;1.67;;;19.80;99.90;;;;;;5074356;28;20264;-71
2022/05/24 10:11:32;;;;;;;2.28;1.70;;;19.40;99.90;;;;;;5074426;28;20709;-71
2022/05/24 10:14:27;;;;;;;1.25;0.50;;;18.90;99.90;;;;;;5074606;28;20206;-71
2022/05/24 10:17:04;;;;;;;4.32;1.65;;;18.50;99.90;;;;;;5061067;28;20716;-72
2022/05/24 10:19:51;;;;;;;2.58;0.98;;;18.30;99.90;;;;;;5074148;28;20206;-71
2022/05/24 10:22:29;;;;;;;1.15;1.05;;;18.30;99.90;;;;;;5074150;28;20202;-72
2022/05/24 10:25:09;;;;;;;3.83;1.45;;;18.60;99.90;;;;;;5074315;28;20202;-71
2022/05/24 10:27:46;;;;;;;3.15;1.17;;;18.20;99.90;;;;;;5073962;28;20293;-72
2022/05/24 10:30:20;;;;;;;3.38;1.23;;;18.10;99.90;;;;;;5074102;28;20765;-72
2022/05/24 10:39:04;;;;;;;2.80;1.15;;;18.20;99.90;;;;;;5056080;28;20206;-71
2022/05/24 10:41:43;;;;;;;1.52;0.98;;;18.20;99.90;;;;;;5035841;28;20214;-72
2022/05/24 10:44:14;;;;;;;2.22;1.00;;;18.10;99.90;;;;;;5071933;28;20214;-70
2022/05/24 10:46:45;;;;;;;1.33;0.77;;;17.90;99.90;;;;;;5073062;28;20198;-71
2022/05/24 10:49:21;;;;;;;3.38;2.38;;;18.00;99.90;;;;;;5073287;28;20248;-71
2022/05/24 10:51:55;;;;;;;1.65;1.30;;;17.90;99.90;;;;;;5073068;28;20232;-71
2022/05/24 10:54:33;;;;;;;5.63;1.15;;;18.00;99.90;;;;;;5073724;28;20198;-72
2022/05/24 10:57:05;;;;;;;3.00;1.45;;;18.20;99.90;;;;;;5073333;28;20210;-70
2022/05/24 10:59:44;;;;;;;2.08;0.77;;;18.30;99.90;;;;;;5072730;28;20256;-70
2022/05/24 11:02:19;;;;;;;2.63;1.10;;;18.30;99.90;;;;;;5073307;28;20623;-71
2022/05/24 11:04:52;;;;;;;2.63;1.00;;;18.40;99.90;;;;;;5072961;28;20669;-71
2022/05/24 11:07:20;;;;;;;2.75;1.25;;;18.50;99.90;;;;;;5073391;28;20252;-72
2022/05/24 11:09:54;;;;;;;4.07;1.55;;;18.40;99.90;;;;;;5072934;28;20280;-70
2022/05/24 11:12:29;;;;;;;2.78;0.85;;;18.20;99.90;;;;;;5072732;28;20206;-71
2022/05/24 11:15:02;;;;;;;3.10;0.90;;;18.50;99.90;;;;;;5073284;28;20263;-71
2022/05/24 11:17:29;;;;;;;0.90;0.90;;;18.70;99.90;;;;;;5072702;28;20198;-71
2022/05/24 11:19:57;;;;;;;5.75;1.38;;;18.70;99.90;;;;;;5073082;28;20214;-71
2022/05/24 11:22:29;;;;;;;4.10;1.25;;;18.90;99.90;;;;;;5072751;28;20206;-71
2022/05/24 11:25:01;;;;;;;2.53;0.93;;;18.80;99.90;;;;;;5072808;28;20300;-71
2022/05/24 11:27:34;;;;;;;4.05;1.48;;;18.60;99.90;;;;;;5072112;28;20252;-72
2022/05/24 11:30:08;;;;;;;4.00;2.42;;;18.50;99.90;;;;;;5072689;28;20587;-71
2022/05/24 11:32:41;;;;;;;5.05;1.25;;;18.40;99.90;;;;;;5058695;28;20698;-71
2022/05/24 11:35:12;;;;;;;3.42;1.38;;;18.40;99.90;;;;;;5072731;28;20206;-70
2022/05/24 11:37:42;;;;;;;5.05;1.10;;;18.80;99.90;;;;;;5072305;28;20274;-71
2022/05/24 11:40:38;;;;;;;1.90;1.50;;;18.80;99.90;;;;;;5072686;28;20289;-71
2022/05/24 11:43:09;;;;;;;0.98;0.88;;;18.90;99.90;;;;;;5037717;28;20293;-71
2022/05/24 11:45:59;;;;;;;4.57;1.13;;;18.80;99.90;;;;;;5071969;28;20293;-72
2022/05/24 11:48:51;;;;;;;2.45;1.30;;;19.00;99.90;;;;;;5071497;28;20324;-71
2022/05/24 11:51:37;;;;;;;3.25;1.42;;;19.30;99.90;;;;;;5072282;28;20240;-70
2022/05/24 11:54:08;;;;;;;3.92;1.70;;;19.40;99.90;;;;;;5072583;28;20198;-71
2022/05/24 11:56:35;;;;;;;4.47;1.50;;;19.70;99.90;;;;;;5069349;28;20275;-71
2022/05/24 11:59:06;;;;;;;4.40;1.00;;;19.50;99.90;;;;;;5072418;28;20202;-71
2022/05/24 12:01:43;;;;;;;2.00;0.85;;;19.60;99.90;;;;;;5072208;28;20202;-71
2022/05/24 12:10:51;;;;;;;1.98;1.77;;;19.20;99.90;;;;;;5065083;28;20552;-72
2022/05/24 12:13:31;;;;;;;3.30;1.15;;;19.40;99.90;;;;;;5061306;28;20670;-70
2022/05/24 12:16:03;;;;;;;2.03;1.08;;;19.40;99.90;;;;;;5072252;28;20202;-70
2022/05/24 12:18:44;;;;;;;4.05;1.75;;;19.50;99.90;;;;;;5071706;28;20205;-71
2022/05/24 12:21:34;;;;;;;3.05;1.65;;;19.40;99.90;;;;;;5072208;28;20210;-71
2022/05/24 12:24:31;;;;;;;3.50;1.40;;;19.20;99.90;;;;;;5053607;28;20631;-70
2022/05/24 12:27:15;;;;;;;1.02;0.80;;;19.10;99.90;;;;;;5066560;28;20654;-71
2022/05/24 12:29:44;;;;;;;3.50;2.35;;;18.90;99.90;;;;;;5065631;28;20202;-70
2022/05/24 12:32:17;;;;;;;4.80;1.33;;;19.10;99.90;;;;;;5071216;28;20229;-71
2022/05/24 12:34:44;;;;;;;2.88;1.10;;;19.20;99.90;;;;;;5071189;28;20210;-70
2022/05/24 12:37:20;;;;;;;5.88;1.30;;;19.20;99.90;;;;;;5071226;28;20213;-72
2022/05/24 12:40:12;;;;;;;3.25;1.08;;;19.10;99.90;;;;;;5071238;28;20198;-72
2022/05/24 12:42:48;;;;;;;2.72;0.82;;;19.10;99.90;;;;;;5057780;28;20755;-71
2022/05/24 12:45:21;;;;;;;4.90;1.33;;;18.90;99.90;;;;;;5071079;28;20214;-71
2022/05/24 12:47:53;;;;;;;1.25;0.75;;;18.80;99.90;;;;;;5070589;28;20205;-74
2022/05/24 12:50:26;;;;;;;2.97;1.00;;;18.70;99.90;;;;;;5071436;28;20654;-71
2022/05/24 12:53:04;;;;;;;3.28;0.90;;;18.50;99.90;;;;;;5071310;28;20271;-72
2022/05/24 12:58:27;;;;;;;6.18;4.38;;;18.60;99.90;;;;;;5071488;28;20214;-71
2022/05/24 13:01:13;;;;;;;2.72;1.45;;;18.70;99.90;;;;;;5070774;28;20632;-71
2022/05/24 13:03:48;;;;;;;1.80;1.33;;;18.80;99.90;;;;;;5070322;28;20580;-71
2022/05/24 13:06:22;;;;;;;2.90;0.82;;;19.20;99.90;;;;;;5058030;28;20193;-72
2022/05/24 13:09:07;;;;;;;4.53;1.00;;;19.50;99.90;;;;;;5070923;28;20255;-71
2022/05/24 13:11:35;;;;;;;1.50;0.80;;;19.70;99.90;;;;;;5070414;28;20754;-71
2022/05/24 13:14:02;;;;;;;0.80;0.77;;;20.10;99.90;;;;;;5070529;28;20210;-71
2022/05/24 13:16:30;;;;;;;1.27;1.13;;;20.20;99.90;;;;;;5070097;28;20666;-71
2022/05/24 13:18:58;;;;;;;1.73;0.70;;;20.10;99.90;;;;;;5063846;28;20252;-71
2022/05/24 13:21:26;;;;;;;3.33;0.98;;;19.90;99.90;;;;;;5070489;28;20206;-70
2022/05/24 13:24:09;;;;;;;2.58;0.70;;;19.90;99.90;;;;;;5070654;28;20212;-70
2022/05/24 13:26:36;;;;;;;5.15;1.40;;;19.90;99.90;;;;;;5070267;28;20621;-70
2022/05/24 13:29:21;;;;;;;1.33;0.63;;;19.70;99.90;;;;;;5070798;28;20213;-71
2022/05/24 13:34:36;;;;;;;5.35;0.85;;;19.60;99.90;;;;;;5070131;28;20287;-71
2022/05/24 13:37:06;;;;;;;2.78;1.05;;;19.60;99.90;;;;;;5070527;28;20247;-71
2022/05/24 13:39:53;;;;;;;6.20;0.82;;;19.40;99.90;;;;;;5069968;28;20233;-70
2022/05/24 13:42:25;;;;;;;4.07;0.73;;;19.10;99.90;;;;;;5061696;28;20235;-70
2022/05/24 13:45:16;;;;;;;1.35;1.23;;;19.00;99.90;;;;;;5070412;28;20232;-70
2022/05/24 13:47:47;;;;;;;2.15;0.65;;;18.90;99.90;;;;;;5070271;28;20206;-70
2022/05/24 13:50:23;;;;;;;1.77;0.98;;;18.50;99.90;;;;;;5056863;28;20237;-72
2022/05/24 13:52:56;;;;;;;2.42;0.93;;;18.40;99.90;;;;;;5070659;28;20229;-72
2022/05/24 13:55:25;;;;;;;4.53;1.02;;;18.30;99.90;;;;;;5070617;28;20202;-70
2022/05/24 13:58:02;;;;;;;3.17;1.63;;;18.10;99.90;;;;;;5067437;28;20252;-71
2022/05/24 14:00:40;;;;;;;2.22;0.80;;;17.90;99.90;;;;;;5069780;28;20298;-71